Terminal Aerodrome Forecast
Issued by NWS Springfield, MO

Home | Current Version | Previous Version | Text Only | Print | Product List | Glossary On
Versions: 1 2 3 4 5 6 7 8 9 10 11 12 13 14 15 16 17 18 19 20 21 22 23 24 25 26 27 28 29 30 31 32 33 34 35 36
000
FTUS43 KSGF 182300
TAFSGF
TAF
KSGF 182336Z 1900/1924 12008KT P6SM BKN040
     FM190600 13005KT 6SM BR SCT010 BKN040
     FM190900 13005KT 4SM BR BKN007 OVC012
     FM191400 14009KT P6SM SCT007 BKN015
     FM191600 14009KT P6SM SCT030 SCT250=

USA.gov is the U.S. government's official web portal to all federal, state and local government web resources and services.